Time;durP1;ratioP1;P1;durP2;ratioP2;P2;SDS_P1;SDS_P2;PMS_P1;PMS_P2;Temp;Humidity;BMP_temperature;BMP_pressure;BME280_temperature;BME280_humidity;BME280_pressure;Samples;Min_cycle;Max_cycle;Signal;HPM_P1;HPM_P2
2021/11/25 11:27:26;;;;;;;23.63;18.60;;;7.30;97.80;;;;;;3869672;23;20496;-82
2021/11/25 11:30:04;;;;;;;18.57;16.23;;;7.70;97.70;;;;;;4959601;28;20540;-83
2021/11/25 11:32:39;;;;;;;21.80;16.40;;;7.70;96.90;;;;;;4937498;28;20469;-82
2021/11/25 11:35:21;;;;;;;21.40;16.03;;;7.80;97.00;;;;;;4940559;28;20534;-84
2021/11/25 11:38:13;;;;;;;21.47;17.33;;;8.20;95.70;;;;;;4937940;28;20567;-83
2021/11/25 11:41:02;;;;;;;21.63;16.30;;;8.20;95.20;;;;;;4937621;28;20496;-82
2021/11/25 11:43:56;;;;;;;26.60;18.03;;;8.10;95.20;;;;;;4946238;28;20470;-82
2021/11/25 11:46:35;;;;;;;23.43;17.20;;;8.10;95.60;;;;;;4959289;28;20891;-82
2021/11/25 11:49:15;;;;;;;24.00;17.27;;;7.80;95.70;;;;;;4928014;28;20579;-84
2021/11/25 11:52:04;;;;;;;22.60;17.67;;;7.70;96.20;;;;;;4946490;28;20488;-84
2021/11/25 11:54:54;;;;;;;19.93;16.67;;;7.60;96.50;;;;;;4947123;28;20927;-83
2021/11/25 11:57:44;;;;;;;23.03;17.50;;;7.50;96.80;;;;;;4924552;28;20467;-83
2021/11/25 12:00:34;;;;;;;24.00;17.97;;;7.50;97.10;;;;;;4880508;28;20753;-84
2021/11/25 12:03:01;;;;;;;23.40;16.07;;;7.40;97.30;;;;;;4950985;28;20543;-83
2021/11/25 12:05:46;;;;;;;21.30;16.20;;;7.40;97.50;;;;;;4943802;28;20456;-82
2021/11/25 12:11:11;;;;;;;23.60;18.50;;;7.40;97.60;;;;;;4957013;28;20464;-82
2021/11/25 12:14:00;;;;;;;23.53;17.67;;;7.40;97.40;;;;;;4940995;28;20466;-84
2021/11/25 12:16:36;;;;;;;26.53;18.27;;;7.40;97.20;;;;;;4937770;28;20466;-80
2021/11/25 12:19:08;;;;;;;25.33;18.17;;;7.80;96.40;;;;;;4958246;28;20516;-83
2021/11/25 12:21:44;;;;;;;25.33;19.50;;;7.90;96.10;;;;;;4965108;28;20560;-83
2021/11/25 12:24:25;;;;;;;25.00;17.37;;;7.70;95.90;;;;;;4929715;28;20579;-84
2021/11/25 12:27:32;;;;;;;26.10;18.27;;;8.10;95.40;;;;;;4930286;28;20467;-83
2021/11/25 12:30:04;;;;;;;24.60;17.23;;;8.20;94.80;;;;;;4883424;29;20474;-82
2021/11/25 12:32:48;;;;;;;25.90;18.20;;;8.00;95.10;;;;;;4936368;28;20475;-82
2021/11/25 12:35:18;;;;;;;22.47;17.50;;;8.50;95.30;;;;;;4923403;28;20495;-83
2021/11/25 12:37:48;;;;;;;22.77;16.53;;;8.60;93.90;;;;;;4917481;28;20989;-84
2021/11/25 12:40:38;;;;;;;23.70;16.77;;;8.30;94.10;;;;;;5179630;23;20517;-82
2021/11/25 12:43:13;;;;;;;21.67;16.67;;;8.40;94.30;;;;;;4930811;28;20457;-83
2021/11/25 12:45:42;;;;;;;25.90;18.70;;;8.40;94.30;;;;;;4944816;28;20543;-84
2021/11/25 12:48:17;;;;;;;23.33;17.20;;;8.30;94.50;;;;;;4939022;28;20494;-83
2021/11/25 12:51:13;;;;;;;22.73;18.40;;;8.30;94.70;;;;;;4936098;28;20489;-84
2021/11/25 12:53:45;;;;;;;22.57;18.00;;;8.30;94.80;;;;;;4939700;28;20463;-83
2021/11/25 12:56:31;;;;;;;20.83;15.50;;;8.10;94.90;;;;;;4938513;28;20458;-85
2021/11/25 12:59:04;;;;;;;24.97;17.77;;;7.90;95.40;;;;;;4938095;28;20484;-85
2021/11/25 13:01:37;;;;;;;21.97;16.60;;;8.10;95.70;;;;;;4930423;28;20490;-84
2021/11/25 13:04:20;;;;;;;23.07;17.47;;;8.30;95.00;;;;;;4933762;28;20456;-83
2021/11/25 13:06:58;;;;;;;22.70;16.60;;;8.10;95.10;;;;;;4936510;28;20453;-84
2021/11/25 13:09:47;;;;;;;;;;;;;;;;;;;;;
2021/11/25 13:12:43;;;;;;;21.73;16.87;;;8.40;94.60;;;;;;4937028;28;20464;-84
2021/11/25 13:15:29;;;;;;;22.63;16.50;;;8.60;94.60;;;;;;4926171;28;20537;-82
2021/11/25 13:18:06;;;;;;;21.40;14.97;;;8.60;94.20;;;;;;4938709;28;20444;-83
2021/11/25 13:21:09;;;;;;;22.83;16.67;;;8.70;94.00;;;;;;4943631;28;20573;-83
2021/11/25 13:23:55;;;;;;;21.83;16.03;;;8.80;93.80;;;;;;4872957;29;20454;-82
2021/11/25 13:30:35;;;;;;;25.00;17.17;;;8.70;94.10;;;;;;4941231;28;20482;-83
2021/11/25 13:33:29;;;;;;;23.50;17.07;;;8.70;94.10;;;;;;4938670;28;20451;-83
2021/11/25 13:36:11;;;;;;;20.30;16.27;;;8.60;94.20;;;;;;4941646;28;20462;-81
2021/11/25 13:38:51;;;;;;;19.43;15.70;;;8.30;94.50;;;;;;4940568;28;20546;-81
2021/11/25 13:41:38;;;;;;;22.60;16.03;;;8.20;95.20;;;;;;4944451;28;20499;-84
2021/11/25 13:44:10;;;;;;;16.50;14.43;;;8.40;95.20;;;;;;4944836;28;20559;-83
2021/11/25 13:47:02;;;;;;;20.10;16.33;;;8.60;94.30;;;;;;4941798;28;20545;-82
2021/11/25 13:49:55;;;;;;;18.80;14.13;;;8.40;94.50;;;;;;4958574;28;20504;-83
2021/11/25 13:52:50;;;;;;;19.13;13.93;;;8.10;95.10;;;;;;4916859;28;20464;-80
2021/11/25 13:55:35;;;;;;;22.40;15.23;;;8.00;95.70;;;;;;4945450;28;20463;-83
2021/11/25 13:58:04;;;;;;;21.93;14.50;;;7.90;96.10;;;;;;4939975;28;20486;-82
2021/11/25 14:00:41;;;;;;;18.00;14.90;;;7.90;96.40;;;;;;4940181;28;21558;-82
2021/11/25 14:03:14;;;;;;;17.53;13.60;;;7.90;96.50;;;;;;4947071;28;20475;-82
2021/11/25 14:05:52;;;;;;;19.90;15.50;;;7.80;96.60;;;;;;4946132;28;20483;-83
2021/11/25 14:08:29;;;;;;;20.30;14.67;;;7.80;96.70;;;;;;4936224;28;20559;-81
2021/11/25 14:11:15;;;;;;;17.87;14.20;;;7.90;97.00;;;;;;4942174;28;20481;-82
2021/11/25 14:13:43;;;;;;;18.27;15.33;;;7.90;97.30;;;;;;4940577;28;20465;-83
2021/11/25 14:16:15;;;;;;;17.03;14.57;;;7.80;97.60;;;;;;4939673;28;20981;-83
2021/11/25 14:19:10;;;;;;;17.20;15.13;;;7.90;98.10;;;;;;4940783;28;20454;-82
2021/11/25 14:21:53;;;;;;;21.30;15.70;;;7.80;98.70;;;;;;4938697;28;20499;-82
2021/11/25 14:24:27;;;;;;;19.53;15.67;;;7.90;99.50;;;;;;4955755;28;20475;-82
2021/11/25 14:33:26;;;;;;;23.40;16.37;;;7.80;99.70;;;;;;4926410;28;21133;-83
2021/11/25 14:36:29;;;;;;;20.10;16.27;;;7.70;99.90;;;;;;4944696;28;20460;-81
2021/11/25 14:39:30;;;;;;;;;;;;;;;;;;;;;
2021/11/25 14:42:22;;;;;;;22.97;16.90;;;7.70;99.90;;;;;;4958429;28;20460;-83
2021/11/25 14:45:33;;;;;;;29.83;17.93;;;7.70;99.90;;;;;;4961891;28;20478;-84
2021/11/25 14:48:31;;;;;;;26.73;19.07;;;7.80;99.90;;;;;;4951371;28;20497;-83
2021/11/25 14:51:26;;;;;;;28.00;19.93;;;7.70;99.90;;;;;;4847959;29;21051;-83
2021/11/25 14:54:16;;;;;;;28.53;19.37;;;7.60;99.90;;;;;;4858109;29;20452;-83
2021/11/25 14:57:37;;;;;;;27.10;18.27;;;7.70;99.90;;;;;;4856300;29;20435;-82
2021/11/25 15:00:37;;;;;;;31.57;20.63;;;7.70;99.90;;;;;;4846972;29;20507;-83
2021/11/25 15:03:25;;;;;;;;;;;;;;;;;;;;;
2021/11/25 15:05:58;;;;;;;28.07;19.77;;;7.70;99.90;;;;;;4841173;29;20457;-83
2021/11/25 15:08:51;;;;;;;24.23;17.80;;;7.80;99.90;;;;;;4838586;29;22432;-82
2021/11/25 15:11:55;;;;;;;28.43;19.50;;;7.70;99.90;;;;;;4849086;29;20636;-83
2021/11/25 15:14:41;;;;;;;32.57;21.70;;;7.50;99.90;;;;;;4846569;29;20470;-82
2021/11/25 15:17:30;;;;;;;31.43;23.07;;;7.50;99.90;;;;;;4846552;29;20869;-82
2021/11/25 15:20:05;;;;;;;28.00;20.27;;;7.50;99.90;;;;;;4844285;29;20498;-82
2021/11/25 15:22:43;;;;;;;29.50;20.17;;;7.60;99.90;;;;;;4839625;29;20479;-83
2021/11/25 15:25:16;;;;;;;26.20;18.20;;;7.60;99.90;;;;;;4858603;29;20526;-82
2021/11/25 15:27:59;;;;;;;27.87;20.90;;;7.50;99.90;;;;;;4859645;28;22283;-82
2021/11/25 15:30:44;;;;;;;29.17;19.17;;;7.50;99.90;;;;;;4935027;28;20480;-82
2021/11/25 15:33:48;;;;;;;30.40;20.80;;;7.50;99.90;;;;;;4935040;28;20456;-82
2021/11/25 15:36:22;;;;;;;31.83;22.53;;;7.50;99.90;;;;;;4948763;28;20490;-85
2021/11/25 15:39:07;;;;;;;29.60;21.47;;;7.50;99.90;;;;;;4960060;28;20510;-83
2021/11/25 15:41:58;;;;;;;26.77;21.23;;;7.40;99.90;;;;;;4972806;28;20500;-82
2021/11/25 15:44:48;;;;;;;29.50;20.93;;;7.50;99.90;;;;;;4965645;28;20479;-83
2021/11/25 15:47:47;;;;;;;28.90;21.33;;;7.80;99.90;;;;;;4956826;28;20488;-82
2021/11/25 15:50:45;;;;;;;31.50;20.53;;;7.70;99.90;;;;;;4963287;28;20518;-84
2021/11/25 15:53:32;;;;;;;38.27;23.13;;;7.70;99.90;;;;;;4977867;28;20466;-83
2021/11/25 15:56:20;;;;;;;30.50;21.20;;;7.60;99.90;;;;;;4962863;28;20554;-84
2021/11/25 15:59:08;;;;;;;30.47;21.70;;;7.50;99.90;;;;;;4965472;28;20473;-83
2021/11/25 16:01:48;;;;;;;30.60;23.40;;;7.50;99.90;;;;;;4962489;28;20496;-83
2021/11/25 16:04:56;;;;;;;31.60;23.50;;;7.60;99.90;;;;;;4979033;28;20471;-83
2021/11/25 16:07:44;;;;;;;29.60;21.67;;;7.70;99.90;;;;;;4966671;28;20560;-84
2021/11/25 16:13:49;;;;;;;34.03;22.20;;;8.20;99.90;;;;;;4968439;28;20464;-85
2021/11/25 16:16:50;;;;;;;32.60;23.30;;;8.10;99.90;;;;;;4980987;28;20955;-84
2021/11/25 16:19:44;;;;;;;37.70;25.57;;;8.20;99.90;;;;;;4948393;28;20513;-83
2021/11/25 16:22:33;;;;;;;36.20;23.77;;;8.00;99.90;;;;;;4960935;28;20574;-84
2021/11/25 16:26:08;;;;;;;41.80;25.80;;;7.70;99.90;;;;;;4944423;28;20431;-84
2021/11/25 16:28:38;;;;;;;39.80;25.93;;;7.60;99.90;;;;;;4952306;28;20473;-84
2021/11/25 16:31:49;;;;;;;37.27;26.30;;;7.70;99.90;;;;;;4921190;29;20526;-83
2021/11/25 16:34:28;;;;;;;41.33;27.87;;;7.80;99.90;;;;;;4904835;29;20460;-83
2021/11/25 16:37:42;;;;;;;40.87;27.90;;;8.20;99.90;;;;;;4913963;29;20515;-83
2021/11/25 16:40:41;;;;;;;41.73;27.37;;;7.90;99.90;;;;;;4919529;29;20861;-83
2021/11/25 16:43:49;;;;;;;;;;;;;;;;;;;;;
2021/11/25 16:49:54;;;;;;;40.00;25.57;;;7.40;99.90;;;;;;4932433;29;20852;-83
2021/11/25 16:52:47;;;;;;;37.87;27.37;;;7.40;99.90;;;;;;4898684;29;20468;-80
2021/11/25 16:55:57;;;;;;;36.03;25.83;;;7.40;99.90;;;;;;4939021;28;20511;-82
2021/11/25 16:58:44;;;;;;;39.57;28.60;;;7.40;99.90;;;;;;4997579;28;20474;-85
2021/11/25 17:05:08;;;;;;;;;;;;;;;;;;;;;
2021/11/25 17:19:18;;;;;;;41.97;28.30;;;7.30;99.90;;;;;;4940691;29;20510;-84
2021/11/25 17:22:41;;;;;;;35.70;26.17;;;7.40;99.90;;;;;;4929177;29;20536;-82
2021/11/25 17:26:12;;;;;;;42.30;26.90;;;7.40;99.90;;;;;;4913341;29;20468;-83
2021/11/25 17:45:59;;;;;;;35.10;25.87;;;7.50;99.90;;;;;;4952871;28;20519;-88
